Aviation Digital Data Service (ADDS)

Output produced by METARs form (0327 UTC 30 May 2017)
found at http://www.aviationweather.gov/adds/metars/
 
VQPR 300300Z 32006KT 9999 SCT030 BKN090 15/11 Q1016 NOSIG